Tilden, Nebraska
Current Conditions -  °F | °C
As of 3:56 AM on Friday 19 Dec 2014 (Local Time) from KOFK Reporting Station
Overcast Overcast  
Wind Chill: 22°   Ceiling: 1100
Heat Index: 30°   Visibility: 10mi
Dew Point: 26°   Wind: 9mph
Humidity: 85%   Direction: 220°SW
Pressure: 30.16"   Gusts: NA
Location:  42.04°N, 97.83°W
Report Text: KOFK 190956Z AUTO 22008KT 10SM OVC011 M01/M03 A3016 RMK AO2 SLP231 T10111033
Loading
Personal Weather Stations






























Interactive Weather Map New forecast layout! Learn more

10-Day Weather Forecast

Advertisements
Track Severe Weather on mobile